LEVC - Información del aeropuerto


Mapa

Información de pistas
Pista 04 Longitud 5394 ft Anchura 148 ft
Elevación 205 ft Threshold 0 ft Heading 38
Pista 22 Longitud 5394 ft Anchura 148 ft
Elevación 188 ft Threshold 0 ft Heading 218
Pista 12 Longitud 8858 ft Anchura 148 ft
Elevación 225 ft Threshold 0 ft Heading 116
Pista 30 Longitud 8858 ft Anchura 148 ft
Elevación 172 ft Threshold 0 ft Heading 296
Frecuencias del aeropuerto
Tipo APP Nombre APP Frecuencia 120.1 MHZ
Tipo ATIS Nombre ATIS Frecuencia 121.075 MHZ
Tipo GND Nombre GND Frecuencia 121.7 MHZ
Tipo TWR Nombre TWR Frecuencia 118.55 MHZ
Radio-ayudas del aeropuerto
Tipo NDB Nombre Valencia Frecuencia 400 KHZ
Tipo NDB Nombre Valencia Frecuencia 340 KHZ
Tipo NDB Nombre Sagunto Frecuencia 356 KHZ
Tipo VOR-DME Nombre Valencia Frecuencia 116100 KHZ
Información meteorología y NOTAM del aeropuerto
ADDS - METARS form results

(2358 UTC 23 October 2019)
Data provider http://aviationweather.gov/metar/data/
 
METAR text: LEVC 232330Z 25005KT 9999 FEW030 11/08 Q1011 NOSIG
Conditions at: LEVC (VALENCIA (CIV/MI, ES) observed 2330 UTC 23 October 2019
Temperature: 11.0°C (52°F)
Dewpoint: 8.0°C (46°F) [RH = 82%]
Pressure (altimeter): 29.85 inches Hg (1011.0 mb)
Winds: from the WSW (250 degrees) at 6 MPH (5 knots; 2.6 m/s)
Visibility: 6 or more miles (10+ km)
Ceiling: at least 12,000 feet AGL
Clouds: few clouds at 3000 feet AGL
Weather: no significant weather observed at this time

METAR text: LEVC 232300Z 20004KT 9999 FEW030 12/08 Q1011 NOSIG
Conditions at: LEVC (VALENCIA (CIV/MI, ES) observed 2300 UTC 23 October 2019
Temperature: 12.0°C (54°F)
Dewpoint: 8.0°C (46°F) [RH = 76%]
Pressure (altimeter): 29.85 inches Hg (1011.0 mb)
Winds: from the SSW (200 degrees) at 5 MPH (4 knots; 2.1 m/s)
Visibility: 6 or more miles (10+ km)
Ceiling: at least 12,000 feet AGL
Clouds: few clouds at 3000 feet AGL
Weather: no significant weather observed at this time

Forecast for: LEVC (VALENCIA (CIV/MI, ES)
Text: TAF LEVC 232300Z 2400/2424 28006KT 9999 FEW035 TX23/2412Z TN11/2406Z
Forecast period: 0000 UTC 24 October 2019 to 0000 UTC 25 October 2019
Forecast type: FROM: standard forecast or significant change
Winds: from the W (280 degrees) at 7 MPH (6 knots; 3.1 m/s)
Visibility: 6 or more miles 10+ km)
Ceiling: at least 12,000 feet AGL
Clouds: few clouds at 3500 feet AGL
Weather: no significant weather forecast for this period
Text: TEMPO 2412/2418 36007KT
Forecast period: 1200 to 1800 UTC 24 October 2019
Forecast type: TEMPORARY: The following changes expected for less than half the time period
Winds: from the N (360 degrees) at 8 MPH (7 knots; 3.6 m/s)
Visibility: missing
Ceiling: unknown
Clouds: missing
Weather: no significant weather forecast for this period